Time;durP1;ratioP1;P1;durP2;ratioP2;P2;SDS_P1;SDS_P2;PMS_P1;PMS_P2;Temp;Humidity;BMP_temperature;BMP_pressure;BME280_temperature;BME280_humidity;BME280_pressure;Samples;Min_cycle;Max_cycle;Signal;HPM_P1;HPM_P2
2022/10/09 00:01:10;;;;;;;1.88;0.80;;;10.00;99.90;;;;;;5020864;28;20040;-72
2022/10/09 00:03:37;;;;;;;1.80;1.02;;;10.00;99.90;;;;;;5020283;28;21719;-73
2022/10/09 00:06:04;;;;;;;2.67;1.02;;;10.00;99.90;;;;;;5018225;28;20490;-72
2022/10/09 00:08:30;;;;;;;2.40;1.23;;;10.00;99.90;;;;;;5019164;28;20648;-72
2022/10/09 00:10:55;;;;;;;4.53;1.15;;;10.00;99.90;;;;;;5031644;28;20037;-72
2022/10/09 00:13:21;;;;;;;3.42;1.13;;;9.90;99.90;;;;;;5010956;28;20140;-72
2022/10/09 00:15:47;;;;;;;1.92;1.15;;;9.90;99.90;;;;;;4998459;28;20045;-72
2022/10/09 00:18:15;;;;;;;3.35;1.15;;;9.90;99.90;;;;;;5015970;28;20029;-72
2022/10/09 00:20:43;;;;;;;4.40;1.30;;;9.80;99.90;;;;;;5019009;28;20057;-72
2022/10/09 00:23:13;;;;;;;2.80;1.15;;;9.80;99.90;;;;;;5018262;28;20065;-72
2022/10/09 00:25:39;;;;;;;2.30;1.30;;;9.80;99.90;;;;;;5017514;28;20080;-72
2022/10/09 00:28:05;;;;;;;2.03;1.27;;;9.80;99.90;;;;;;5000535;28;20119;-72
2022/10/09 00:30:30;;;;;;;3.67;1.33;;;9.80;99.90;;;;;;5016279;28;20083;-72
2022/10/09 00:32:56;;;;;;;2.25;1.00;;;9.80;99.90;;;;;;4999611;28;20063;-72
2022/10/09 00:35:22;;;;;;;2.67;1.48;;;9.80;99.90;;;;;;5019006;28;20045;-73
2022/10/09 00:37:48;;;;;;;1.58;0.90;;;9.80;99.90;;;;;;5019270;28;20437;-73
2022/10/09 00:40:15;;;;;;;2.90;1.10;;;9.80;99.90;;;;;;5012582;28;20037;-73
2022/10/09 00:42:41;;;;;;;2.28;0.90;;;9.70;99.90;;;;;;5002949;28;20033;-72
2022/10/09 00:45:19;;;;;;;2.08;0.90;;;9.70;99.90;;;;;;5016431;28;20084;-72
2022/10/09 00:47:49;;;;;;;1.63;0.95;;;9.70;99.90;;;;;;5014113;28;20048;-72
2022/10/09 00:50:23;;;;;;;2.22;1.25;;;9.70;99.90;;;;;;5018792;28;20045;-72
2022/10/09 00:52:55;;;;;;;5.28;1.30;;;9.70;99.90;;;;;;5009071;28;20145;-73
2022/10/09 00:55:22;;;;;;;11.13;0.90;;;9.70;99.90;;;;;;5015435;28;20454;-72
2022/10/09 00:57:49;;;;;;;4.47;1.45;;;9.70;99.90;;;;;;5015095;28;20084;-72
2022/10/09 01:00:15;;;;;;;3.42;1.02;;;9.70;99.90;;;;;;5017586;28;20128;-72
2022/10/09 01:02:40;;;;;;;2.67;1.25;;;9.70;99.90;;;;;;5017075;28;20137;-72
2022/10/09 01:05:08;;;;;;;2.03;1.25;;;9.70;99.90;;;;;;5027581;28;20121;-73
2022/10/09 01:07:41;;;;;;;2.08;1.15;;;9.70;99.90;;;;;;5018136;28;20037;-73
2022/10/09 01:10:12;;;;;;;1.73;0.88;;;9.70;99.90;;;;;;5011144;28;20052;-72
2022/10/09 01:12:47;;;;;;;2.17;1.05;;;9.60;99.90;;;;;;5015720;28;20128;-73
2022/10/09 01:15:20;;;;;;;4.57;1.00;;;9.60;99.90;;;;;;5017570;28;20033;-73
2022/10/09 01:17:51;;;;;;;2.30;1.10;;;9.60;99.90;;;;;;5019055;28;20049;-73
2022/10/09 01:20:39;;;;;;;1.80;1.25;;;9.60;99.90;;;;;;5016257;28;20511;-73
2022/10/09 01:23:40;;;;;;;2.38;1.10;;;9.50;99.90;;;;;;5015935;28;20041;-72
2022/10/09 01:26:27;;;;;;;2.03;0.85;;;9.60;99.90;;;;;;4999916;28;20041;-73
2022/10/09 01:28:58;;;;;;;2.50;1.02;;;9.50;99.90;;;;;;5011201;28;20033;-73
2022/10/09 01:31:27;;;;;;;2.63;1.27;;;9.60;99.90;;;;;;5020874;28;20040;-73
2022/10/09 01:33:52;;;;;;;2.70;1.20;;;9.50;99.90;;;;;;5019016;28;20041;-73
2022/10/09 01:36:19;;;;;;;9.25;1.55;;;9.50;99.90;;;;;;5031007;28;20034;-72
2022/10/09 01:38:47;;;;;;;2.85;1.10;;;9.50;99.90;;;;;;5018557;28;20180;-72
2022/10/09 01:41:12;;;;;;;2.95;1.15;;;9.40;99.90;;;;;;5017681;28;20048;-72
2022/10/09 01:43:39;;;;;;;6.32;1.75;;;9.40;99.90;;;;;;5017962;28;20034;-72
2022/10/09 01:46:28;;;;;;;3.08;1.45;;;9.40;99.90;;;;;;5000803;28;20411;-72
2022/10/09 01:49:22;;;;;;;2.13;1.13;;;9.40;99.90;;;;;;5022478;28;20068;-72
2022/10/09 01:52:12;;;;;;;3.90;1.25;;;9.30;99.90;;;;;;5017706;28;20152;-72
2022/10/09 01:55:04;;;;;;;2.95;1.10;;;9.30;99.90;;;;;;5018160;28;20132;-72
2022/10/09 01:58:03;;;;;;;2.60;1.38;;;9.30;99.90;;;;;;5017750;28;20405;-73
2022/10/09 02:00:34;;;;;;;2.30;1.20;;;9.30;99.90;;;;;;5018090;28;20042;-72
2022/10/09 02:03:03;;;;;;;4.20;1.35;;;9.20;99.90;;;;;;5017707;28;20041;-72
2022/10/09 02:05:30;;;;;;;3.83;1.85;;;9.20;99.90;;;;;;5000438;28;20120;-72
2022/10/09 02:07:57;;;;;;;5.22;1.40;;;9.20;99.90;;;;;;5019665;28;20061;-73
2022/10/09 02:10:25;;;;;;;5.43;1.08;;;9.20;99.90;;;;;;5014929;28;20045;-72
2022/10/09 02:12:57;;;;;;;2.50;1.10;;;9.20;99.90;;;;;;5019300;28;20121;-72
2022/10/09 02:15:37;;;;;;;3.83;1.42;;;9.10;99.90;;;;;;5036181;28;20088;-73
2022/10/09 02:18:09;;;;;;;5.15;1.30;;;9.10;99.90;;;;;;5017150;28;20774;-73
2022/10/09 02:20:38;;;;;;;4.85;1.60;;;9.10;99.90;;;;;;5017080;28;20037;-73
2022/10/09 02:23:07;;;;;;;2.50;1.13;;;9.10;99.90;;;;;;5002685;28;20068;-73
2022/10/09 02:25:33;;;;;;;4.43;1.65;;;9.10;99.90;;;;;;5019508;28;20030;-72
2022/10/09 02:28:00;;;;;;;7.28;1.83;;;9.10;99.90;;;;;;5015128;28;20099;-72
2022/10/09 02:30:32;;;;;;;2.60;1.08;;;9.10;99.90;;;;;;5017135;28;20088;-72
2022/10/09 02:32:58;;;;;;;4.38;1.48;;;9.00;99.90;;;;;;5016743;28;20033;-72
2022/10/09 02:35:24;;;;;;;2.65;1.30;;;9.00;99.90;;;;;;5015687;28;20043;-72
2022/10/09 02:37:49;;;;;;;2.13;1.05;;;9.00;99.90;;;;;;5013837;28;20069;-72
2022/10/09 02:40:15;;;;;;;10.65;1.83;;;9.00;99.90;;;;;;5020404;28;20120;-72
2022/10/09 02:42:40;;;;;;;3.70;1.58;;;9.00;99.90;;;;;;5016188;28;20603;-72
2022/10/09 02:45:07;;;;;;;1.55;1.00;;;9.00;99.90;;;;;;5015554;28;20101;-73
2022/10/09 02:47:33;;;;;;;2.03;0.80;;;9.00;99.90;;;;;;5003006;28;20030;-72
2022/10/09 02:49:58;;;;;;;3.05;1.65;;;9.00;99.90;;;;;;5019106;28;20091;-73
2022/10/09 02:52:24;;;;;;;2.10;1.23;;;9.00;99.90;;;;;;5019189;28;20558;-72
2022/10/09 02:54:49;;;;;;;6.80;1.55;;;9.00;99.90;;;;;;4998291;28;20456;-73
2022/10/09 02:57:15;;;;;;;3.30;1.38;;;9.00;99.90;;;;;;5019582;28;20061;-72
2022/10/09 02:59:41;;;;;;;3.72;1.17;;;9.00;99.90;;;;;;5018184;28;20042;-72
2022/10/09 03:02:06;;;;;;;3.45;1.48;;;9.00;99.90;;;;;;5019082;28;20036;-73
2022/10/09 03:04:32;;;;;;;4.03;1.70;;;9.00;99.90;;;;;;5020886;28;20037;-72
2022/10/09 03:06:58;;;;;;;1.95;1.23;;;8.90;99.90;;;;;;5020677;28;20056;-72
2022/10/09 03:09:23;;;;;;;5.38;1.70;;;8.90;99.90;;;;;;5017997;28;20056;-72
2022/10/09 03:11:49;;;;;;;5.57;1.63;;;8.90;99.90;;;;;;5019922;28;20049;-73
2022/10/09 03:14:14;;;;;;;2.25;1.25;;;8.90;99.90;;;;;;5020274;28;20402;-73
2022/10/09 03:16:40;;;;;;;3.80;1.35;;;8.80;99.90;;;;;;5002388;28;20041;-73
2022/10/09 03:19:06;;;;;;;5.10;1.70;;;8.80;99.90;;;;;;5015460;28;20064;-73
2022/10/09 03:21:31;;;;;;;3.72;1.58;;;8.80;99.90;;;;;;5018527;28;20522;-73
2022/10/09 03:23:57;;;;;;;4.20;1.60;;;8.80;99.90;;;;;;5021295;28;20086;-73
2022/10/09 03:26:25;;;;;;;3.88;1.67;;;8.80;99.90;;;;;;5000503;28;20046;-73
2022/10/09 03:28:52;;;;;;;3.33;1.73;;;8.80;99.90;;;;;;4999647;28;20037;-72
2022/10/09 03:31:20;;;;;;;4.25;1.45;;;8.80;99.90;;;;;;5014097;28;20083;-72
2022/10/09 03:33:45;;;;;;;5.30;1.73;;;8.80;99.90;;;;;;5019373;28;20292;-72
2022/10/09 03:36:11;;;;;;;2.17;1.40;;;8.80;99.90;;;;;;5017105;28;20231;-72
2022/10/09 03:38:37;;;;;;;3.10;1.80;;;8.80;99.90;;;;;;4998741;28;20037;-72
2022/10/09 03:41:04;;;;;;;6.20;1.92;;;8.80;99.90;;;;;;5018472;28;20048;-72
2022/10/09 03:43:30;;;;;;;2.75;1.70;;;8.80;99.90;;;;;;5017684;28;20363;-72
2022/10/09 03:45:56;;;;;;;2.38;1.50;;;8.80;99.90;;;;;;5019337;28;20494;-72
2022/10/09 03:48:22;;;;;;;2.45;1.35;;;8.80;99.90;;;;;;5019225;28;20042;-72
2022/10/09 03:50:48;;;;;;;2.60;1.55;;;8.70;99.90;;;;;;5016474;28;20246;-72
2022/10/09 03:53:15;;;;;;;2.17;1.15;;;8.70;99.90;;;;;;5020858;28;20072;-72
2022/10/09 03:55:41;;;;;;;2.65;1.35;;;8.60;99.90;;;;;;5019126;28;20045;-72
2022/10/09 03:58:07;;;;;;;4.60;1.65;;;8.60;99.90;;;;;;5019112;28;20037;-72
2022/10/09 04:00:33;;;;;;;4.20;1.48;;;8.60;99.90;;;;;;5019748;28;20083;-72
2022/10/09 04:02:59;;;;;;;5.38;1.58;;;8.60;99.90;;;;;;5022590;28;20052;-72
2022/10/09 04:05:25;;;;;;;2.80;1.42;;;8.60;99.90;;;;;;5020487;28;20026;-72
2022/10/09 04:07:51;;;;;;;2.97;1.48;;;8.60;99.90;;;;;;5005744;28;20446;-72
2022/10/09 04:10:16;;;;;;;15.98;2.10;;;8.50;99.90;;;;;;5022740;28;20049;-72
2022/10/09 04:12:42;;;;;;;4.18;1.77;;;8.50;99.90;;;;;;5005402;28;20045;-72
2022/10/09 04:15:08;;;;;;;2.88;1.60;;;8.50;99.90;;;;;;5023257;28;20044;-72
2022/10/09 04:17:34;;;;;;;5.20;1.60;;;8.50;99.90;;;;;;5018514;28;20029;-72
2022/10/09 04:19:59;;;;;;;5.32;1.73;;;8.50;99.90;;;;;;5022478;28;20041;-72
2022/10/09 04:22:25;;;;;;;2.88;1.52;;;8.50;99.90;;;;;;5021380;28;20037;-72
2022/10/09 04:24:50;;;;;;;2.55;1.55;;;8.40;99.90;;;;;;5023141;28;20140;-72
2022/10/09 04:27:16;;;;;;;5.43;1.70;;;8.40;99.90;;;;;;5021092;28;20451;-72
2022/10/09 04:29:42;;;;;;;2.25;1.30;;;8.40;99.90;;;;;;5020925;28;20091;-72
2022/10/09 04:32:07;;;;;;;2.45;1.48;;;8.30;99.90;;;;;;5022912;28;20477;-72
2022/10/09 04:34:33;;;;;;;3.10;1.55;;;8.30;99.90;;;;;;5020133;28;20041;-73
2022/10/09 04:36:58;;;;;;;2.28;1.27;;;8.30;99.90;;;;;;5022156;28;20037;-73
2022/10/09 04:39:24;;;;;;;2.90;1.42;;;8.30;99.90;;;;;;5021949;28;20076;-73
2022/10/09 04:41:50;;;;;;;2.50;1.38;;;8.30;99.90;;;;;;5020134;28;20445;-73
2022/10/09 04:44:15;;;;;;;2.13;1.13;;;8.30;99.90;;;;;;5005983;28;20057;-73
2022/10/09 04:46:41;;;;;;;7.35;1.67;;;8.30;99.90;;;;;;5005505;28;20038;-73
2022/10/09 04:49:11;;;;;;;2.45;1.38;;;8.30;99.90;;;;;;5020916;28;20038;-73
2022/10/09 04:51:36;;;;;;;3.10;1.17;;;8.30;99.90;;;;;;5020339;28;20539;-73
2022/10/09 04:54:02;;;;;;;6.38;1.42;;;8.40;99.90;;;;;;5018742;28;20040;-72
2022/10/09 04:56:28;;;;;;;2.78;1.50;;;8.40;99.90;;;;;;5015719;28;20038;-73
2022/10/09 04:58:53;;;;;;;2.80;1.75;;;8.40;99.90;;;;;;5017583;28;20049;-72
2022/10/09 05:01:22;;;;;;;4.40;1.50;;;8.30;99.90;;;;;;5014002;28;20413;-73
2022/10/09 05:03:51;;;;;;;2.53;1.60;;;8.30;99.90;;;;;;5014645;28;20403;-73
2022/10/09 05:06:19;;;;;;;1.85;1.17;;;8.30;99.90;;;;;;5018698;28;20037;-73
2022/10/09 05:08:46;;;;;;;4.70;1.60;;;8.20;99.90;;;;;;4996768;28;20199;-73
2022/10/09 05:11:14;;;;;;;2.95;1.60;;;8.20;99.90;;;;;;4995263;28;20061;-73
2022/10/09 05:13:44;;;;;;;1.92;1.23;;;8.20;99.90;;;;;;5017488;28;20107;-73
2022/10/09 05:16:12;;;;;;;3.08;1.55;;;8.20;99.90;;;;;;5004811;28;20736;-73
2022/10/09 05:18:49;;;;;;;2.30;1.30;;;8.20;99.90;;;;;;5036231;28;20038;-72
2022/10/09 05:21:16;;;;;;;2.33;1.20;;;8.20;99.90;;;;;;5006179;28;20030;-72
2022/10/09 05:23:42;;;;;;;5.35;2.08;;;8.20;99.90;;;;;;5031529;28;20075;-72
2022/10/09 05:26:13;;;;;;;5.90;1.63;;;8.20;99.90;;;;;;5017281;28;20128;-72
2022/10/09 05:28:39;;;;;;;5.95;1.67;;;8.20;99.90;;;;;;5022155;28;20088;-72
2022/10/09 05:31:06;;;;;;;2.30;1.20;;;8.20;99.90;;;;;;5018658;28;20072;-72
2022/10/09 05:33:33;;;;;;;2.85;1.60;;;8.20;99.90;;;;;;5019504;28;20025;-73
2022/10/09 05:36:02;;;;;;;3.83;1.45;;;8.20;99.90;;;;;;5020380;28;20053;-73
2022/10/09 05:38:30;;;;;;;3.75;1.40;;;8.20;99.90;;;;;;5019376;28;20450;-73
2022/10/09 05:40:58;;;;;;;2.70;1.45;;;8.20;99.90;;;;;;5025250;28;20072;-73
2022/10/09 05:43:25;;;;;;;6.75;1.95;;;8.20;99.90;;;;;;5018213;28;20459;-72
2022/10/09 05:45:51;;;;;;;4.22;1.52;;;8.20;99.90;;;;;;5024733;28;21344;-72
2022/10/09 05:48:17;;;;;;;6.18;2.60;;;8.20;99.90;;;;;;5019417;28;20044;-73
2022/10/09 05:50:43;;;;;;;3.92;3.00;;;8.20;99.90;;;;;;5017470;28;20049;-73
2022/10/09 05:53:08;;;;;;;2.58;1.85;;;8.30;99.90;;;;;;5019677;28;20045;-73
2022/10/09 05:55:34;;;;;;;9.07;3.00;;;8.30;99.90;;;;;;5017993;28;20034;-73
2022/10/09 05:58:00;;;;;;;4.60;2.05;;;8.30;99.90;;;;;;5020014;28;20454;-72
2022/10/09 06:00:25;;;;;;;3.78;2.30;;;8.30;99.90;;;;;;5016561;28;20061;-73
2022/10/09 06:02:51;;;;;;;5.80;1.75;;;8.30;99.90;;;;;;5020047;28;20321;-73
2022/10/09 06:05:16;;;;;;;5.85;2.90;;;8.30;99.90;;;;;;5021456;28;20037;-73
2022/10/09 06:07:42;;;;;;;2.60;1.50;;;8.30;99.90;;;;;;5014322;28;20398;-73
2022/10/09 06:10:08;;;;;;;3.13;1.75;;;8.20;99.90;;;;;;5019717;28;20049;-72
2022/10/09 06:12:34;;;;;;;6.15;1.88;;;8.30;99.90;;;;;;5014916;28;20060;-73
2022/10/09 06:15:00;;;;;;;2.65;1.75;;;8.30;99.90;;;;;;5015671;28;20045;-73
2022/10/09 06:17:25;;;;;;;2.72;1.77;;;8.20;99.90;;;;;;5017221;28;20091;-73
2022/10/09 06:19:51;;;;;;;3.50;1.60;;;8.20;99.90;;;;;;5016015;28;20495;-73
2022/10/09 06:22:16;;;;;;;4.53;1.80;;;8.20;99.90;;;;;;5018001;28;20037;-73
2022/10/09 06:24:42;;;;;;;2.30;1.45;;;8.20;99.90;;;;;;5017490;28;20041;-73
2022/10/09 06:27:09;;;;;;;2.70;1.42;;;8.20;99.90;;;;;;5019764;28;20064;-73
2022/10/09 06:29:35;;;;;;;4.35;1.60;;;8.20;99.90;;;;;;5020059;28;20124;-73
2022/10/09 06:32:00;;;;;;;2.83;1.73;;;8.20;99.90;;;;;;5021751;28;20049;-73
2022/10/09 06:34:26;;;;;;;3.42;1.80;;;8.20;99.90;;;;;;5034957;28;20056;-73
2022/10/09 06:36:52;;;;;;;2.30;1.60;;;8.10;99.90;;;;;;5016128;28;20037;-72
2022/10/09 06:39:17;;;;;;;2.40;1.35;;;8.20;99.90;;;;;;5018444;28;20522;-73
2022/10/09 06:41:43;;;;;;;3.95;2.17;;;8.10;99.90;;;;;;5018272;28;20896;-73
2022/10/09 06:44:11;;;;;;;3.58;1.48;;;8.20;99.90;;;;;;5023762;28;20561;-73
2022/10/09 06:46:39;;;;;;;2.20;1.55;;;8.20;99.90;;;;;;5024976;28;20511;-73
2022/10/09 06:49:07;;;;;;;4.50;1.75;;;8.20;99.90;;;;;;5017255;28;20033;-73
2022/10/09 06:51:33;;;;;;;3.58;1.98;;;8.20;99.90;;;;;;5013980;28;20033;-73
2022/10/09 06:54:02;;;;;;;5.75;2.35;;;8.20;99.90;;;;;;5018990;28;20421;-73
2022/10/09 06:56:30;;;;;;;2.50;1.55;;;8.20;99.90;;;;;;5019549;28;20049;-72
2022/10/09 06:58:59;;;;;;;3.45;1.20;;;8.20;99.90;;;;;;5015374;28;20030;-73
2022/10/09 07:01:26;;;;;;;1.92;1.30;;;8.30;99.90;;;;;;5021739;28;20045;-73
2022/10/09 07:03:55;;;;;;;3.90;1.90;;;8.30;99.90;;;;;;5016146;28;20071;-73
2022/10/09 07:06:26;;;;;;;2.88;1.55;;;8.30;99.90;;;;;;5012717;28;20068;-73
2022/10/09 07:08:55;;;;;;;3.28;1.70;;;8.30;99.90;;;;;;5014385;28;20061;-73
2022/10/09 07:11:42;;;;;;;3.88;2.03;;;8.30;99.90;;;;;;5016867;28;20057;-73
2022/10/09 07:14:09;;;;;;;7.75;1.80;;;8.40;99.90;;;;;;5012129;28;20034;-73
2022/10/09 07:16:37;;;;;;;3.15;1.83;;;8.50;99.90;;;;;;5032409;28;20042;-73
2022/10/09 07:19:07;;;;;;;3.50;2.03;;;8.40;99.90;;;;;;5012651;28;20681;-73
2022/10/09 07:21:37;;;;;;;4.22;2.03;;;8.50;99.90;;;;;;5023611;28;20128;-73
2022/10/09 07:24:03;;;;;;;2.67;1.55;;;8.50;99.90;;;;;;4997504;28;20117;-73
2022/10/09 07:26:32;;;;;;;3.67;1.85;;;8.50;99.90;;;;;;5012493;28;21232;-73
2022/10/09 07:28:58;;;;;;;2.05;1.25;;;8.50;99.90;;;;;;4999162;28;20644;-73
2022/10/09 07:31:24;;;;;;;4.22;1.85;;;8.60;99.90;;;;;;5003532;28;20057;-73
2022/10/09 07:33:51;;;;;;;4.30;2.28;;;8.60;99.90;;;;;;5007556;28;20099;-73
2022/10/09 07:36:18;;;;;;;3.33;1.77;;;8.70;99.90;;;;;;5005981;28;20046;-73
2022/10/09 07:38:48;;;;;;;2.78;1.98;;;8.70;99.90;;;;;;5013930;28;20037;-73
2022/10/09 07:41:13;;;;;;;6.50;2.10;;;8.80;99.90;;;;;;5015173;28;20065;-73
2022/10/09 07:43:40;;;;;;;11.18;3.17;;;8.80;99.90;;;;;;5012428;28;20156;-73
2022/10/09 07:46:11;;;;;;;5.68;3.00;;;8.90;99.90;;;;;;5013801;28;20045;-73
2022/10/09 07:48:37;;;;;;;3.75;1.95;;;8.90;99.90;;;;;;5018268;28;20045;-73
2022/10/09 07:51:14;;;;;;;5.70;1.90;;;8.90;99.90;;;;;;5001033;28;20040;-73
2022/10/09 07:53:40;;;;;;;4.63;2.50;;;9.00;99.90;;;;;;5014399;28;20052;-73
2022/10/09 07:56:11;;;;;;;3.90;2.50;;;9.00;99.90;;;;;;5015195;28;20045;-73
2022/10/09 07:58:37;;;;;;;3.42;1.90;;;9.10;99.90;;;;;;5014606;28;20048;-73
2022/10/09 08:01:07;;;;;;;4.10;2.70;;;9.10;99.90;;;;;;5011206;28;20391;-71
2022/10/09 08:03:34;;;;;;;3.30;1.73;;;9.20;99.90;;;;;;5015382;28;20062;-73
2022/10/09 08:06:00;;;;;;;4.20;2.33;;;9.20;99.90;;;;;;5015787;28;21024;-73
2022/10/09 08:08:25;;;;;;;4.20;2.22;;;9.30;99.90;;;;;;5016878;28;20132;-73
2022/10/09 08:10:51;;;;;;;4.35;2.22;;;9.30;99.90;;;;;;4988659;28;20076;-72
2022/10/09 08:13:17;;;;;;;6.15;2.40;;;9.30;99.90;;;;;;5015728;28;20176;-73
2022/10/09 08:15:43;;;;;;;4.53;1.85;;;9.40;99.90;;;;;;5014190;28;20035;-73
2022/10/09 08:18:09;;;;;;;4.25;2.28;;;9.50;99.90;;;;;;5018150;28;21039;-72
2022/10/09 08:20:35;;;;;;;4.13;2.25;;;9.50;99.90;;;;;;4998872;28;20107;-73
2022/10/09 08:23:01;;;;;;;3.88;1.60;;;9.60;99.90;;;;;;5013909;28;21938;-73
2022/10/09 08:25:27;;;;;;;5.03;2.45;;;9.60;99.90;;;;;;4994127;28;20124;-72
2022/10/09 08:27:52;;;;;;;3.88;2.05;;;9.60;99.90;;;;;;5010713;28;20045;-73
2022/10/09 08:30:18;;;;;;;3.33;1.90;;;9.70;99.90;;;;;;5011749;28;20041;-73
2022/10/09 08:32:44;;;;;;;4.72;1.90;;;9.70;99.90;;;;;;5010150;28;20175;-73
2022/10/09 08:35:09;;;;;;;5.07;1.92;;;9.80;99.90;;;;;;5013662;28;20045;-73
2022/10/09 08:37:35;;;;;;;3.20;1.80;;;9.80;99.90;;;;;;5013180;28;20476;-73
2022/10/09 08:40:02;;;;;;;5.80;2.20;;;9.80;99.90;;;;;;5012163;28;20117;-72
2022/10/09 08:42:37;;;;;;;3.53;1.90;;;9.90;99.90;;;;;;4999511;28;20585;-72
2022/10/09 08:45:04;;;;;;;4.18;2.13;;;9.90;99.90;;;;;;4999434;28;20053;-72
2022/10/09 08:47:42;;;;;;;3.70;1.67;;;10.00;99.90;;;;;;5017792;28;20063;-72
2022/10/09 08:50:17;;;;;;;3.63;2.00;;;10.00;99.90;;;;;;5023526;28;20069;-72
2022/10/09 08:53:04;;;;;;;3.42;2.15;;;10.10;99.90;;;;;;5016058;28;20037;-73
2022/10/09 08:55:34;;;;;;;4.10;2.28;;;10.10;99.90;;;;;;5001388;28;20041;-72
2022/10/09 08:58:03;;;;;;;5.05;1.98;;;10.20;99.90;;;;;;5017660;28;20057;-73
2022/10/09 09:01:18;;;;;;;7.15;2.47;;;10.20;99.90;;;;;;5019539;28;20037;-73
2022/10/09 09:04:07;;;;;;;3.60;1.70;;;10.30;99.90;;;;;;5015005;28;20049;-73
2022/10/09 09:06:48;;;;;;;4.47;2.05;;;10.30;99.90;;;;;;5018898;28;20053;-73
2022/10/09 09:09:23;;;;;;;9.82;2.38;;;10.40;99.90;;;;;;5016818;28;20060;-73
2022/10/09 09:11:58;;;;;;;3.13;1.88;;;10.40;99.90;;;;;;5017765;28;21490;-72
2022/10/09 09:14:48;;;;;;;4.60;2.20;;;10.40;99.90;;;;;;5022962;28;20363;-73
2022/10/09 09:17:49;;;;;;;5.43;2.17;;;10.50;99.90;;;;;;5015724;28;20045;-73
2022/10/09 09:20:26;;;;;;;6.93;2.28;;;10.60;99.90;;;;;;5023673;28;20072;-73
2022/10/09 09:22:52;;;;;;;2.75;1.98;;;10.60;99.90;;;;;;5020227;28;20037;-73
2022/10/09 09:25:23;;;;;;;5.00;2.13;;;10.70;99.90;;;;;;5012269;28;20173;-73
2022/10/09 09:27:55;;;;;;;5.05;2.08;;;10.70;99.90;;;;;;4999051;28;20045;-72
2022/10/09 09:30:33;;;;;;;3.70;2.17;;;10.80;99.90;;;;;;5015943;28;20844;-72
2022/10/09 09:33:14;;;;;;;5.55;2.28;;;10.80;99.90;;;;;;5019109;28;20554;-73
2022/10/09 09:35:52;;;;;;;3.25;1.75;;;10.90;99.90;;;;;;5020365;28;20399;-73
2022/10/09 09:38:17;;;;;;;5.03;1.88;;;10.90;99.90;;;;;;5021353;28;20037;-74
2022/10/09 09:40:43;;;;;;;11.30;2.05;;;11.00;99.90;;;;;;5020794;28;20510;-73
2022/10/09 09:43:15;;;;;;;2.97;1.70;;;11.10;99.90;;;;;;5003080;28;20424;-73
2022/10/09 09:45:42;;;;;;;7.78;1.63;;;11.10;99.90;;;;;;5015907;28;20390;-73
2022/10/09 09:48:20;;;;;;;6.03;1.98;;;11.10;99.90;;;;;;5016834;28;20103;-73
2022/10/09 09:50:51;;;;;;;3.20;1.63;;;11.20;99.90;;;;;;5021379;28;20046;-73
2022/10/09 09:53:31;;;;;;;3.22;1.30;;;11.20;99.90;;;;;;5019012;28;20079;-73
2022/10/09 09:55:57;;;;;;;2.33;1.30;;;11.20;99.90;;;;;;5028104;28;20544;-73
2022/10/09 09:58:32;;;;;;;2.45;1.13;;;11.30;99.90;;;;;;5013364;28;20055;-73
2022/10/09 10:01:02;;;;;;;2.78;1.05;;;11.40;99.90;;;;;;5019291;28;20120;-71
2022/10/09 10:03:28;;;;;;;4.57;1.20;;;11.40;99.90;;;;;;5019606;28;20128;-73
2022/10/09 10:05:54;;;;;;;3.60;1.17;;;11.40;99.90;;;;;;5020346;28;20088;-73
2022/10/09 10:08:32;;;;;;;3.33;1.20;;;11.40;99.90;;;;;;5016493;28;20132;-73
2022/10/09 10:11:00;;;;;;;1.65;0.70;;;11.50;99.90;;;;;;5030336;28;20395;-73
2022/10/09 10:13:34;;;;;;;1.67;0.90;;;11.50;99.90;;;;;;5011103;28;20087;-73
2022/10/09 10:16:01;;;;;;;1.58;0.70;;;11.60;99.90;;;;;;5003744;28;20041;-73
2022/10/09 10:18:35;;;;;;;4.47;1.27;;;11.60;99.90;;;;;;5017408;28;20041;-73
2022/10/09 10:21:11;;;;;;;2.65;1.40;;;11.70;99.90;;;;;;5018683;28;20125;-73
2022/10/09 10:23:48;;;;;;;2.80;1.20;;;11.70;99.90;;;;;;5019189;28;20398;-73
2022/10/09 10:26:23;;;;;;;5.38;1.00;;;11.80;99.90;;;;;;5017255;28;20541;-73
2022/10/09 10:29:12;;;;;;;2.15;0.57;;;11.80;99.90;;;;;;5018610;28;20032;-73
2022/10/09 10:31:56;;;;;;;3.28;0.63;;;11.80;99.90;;;;;;5017030;28;20049;-73
2022/10/09 10:34:24;;;;;;;2.25;0.75;;;11.90;99.90;;;;;;5012949;28;20045;-73
2022/10/09 10:37:00;;;;;;;5.30;0.90;;;11.90;99.90;;;;;;5019635;28;20056;-73
2022/10/09 10:39:35;;;;;;;2.53;0.98;;;11.90;99.90;;;;;;5012374;28;20029;-73
2022/10/09 10:42:05;;;;;;;4.38;0.60;;;12.00;99.90;;;;;;5012036;28;20052;-73
2022/10/09 10:44:46;;;;;;;1.08;0.75;;;12.00;99.90;;;;;;5001694;28;20038;-73
2022/10/09 10:47:20;;;;;;;1.23;0.55;;;12.00;99.90;;;;;;5017405;28;20412;-73
2022/10/09 10:49:46;;;;;;;1.77;0.80;;;12.00;99.90;;;;;;5020928;28;20448;-73
2022/10/09 10:52:41;;;;;;;5.53;0.77;;;12.00;99.90;;;;;;5016356;28;20901;-73
2022/10/09 10:55:44;;;;;;;2.05;0.68;;;12.00;99.90;;;;;;4991927;28;20053;-74
2022/10/09 10:58:16;;;;;;;1.38;0.47;;;12.00;99.90;;;;;;4999045;28;20115;-76
2022/10/09 11:00:52;;;;;;;1.40;0.60;;;12.10;99.90;;;;;;5004202;28;20411;-72
2022/10/09 11:03:39;;;;;;;1.63;0.60;;;12.10;99.90;;;;;;5028653;28;20394;-72
2022/10/09 11:06:22;;;;;;;1.77;0.60;;;12.20;99.90;;;;;;5012235;28;20107;-72
2022/10/09 11:09:11;;;;;;;1.58;0.75;;;12.30;99.90;;;;;;5024942;28;20107;-72
2022/10/09 11:12:18;;;;;;;8.85;0.80;;;12.30;99.90;;;;;;5027751;28;20411;-72
2022/10/09 11:14:56;;;;;;;;;;;12.30;99.90;;;;;;5028270;28;20057;-72
2022/10/09 11:17:50;;;;;;;0.82;0.50;;;12.30;99.90;;;;;;5029507;28;19928;-72
2022/10/09 11:20:42;;;;;;;3.38;0.93;;;12.30;99.90;;;;;;5010246;28;20033;-72
2022/10/09 11:23:14;;;;;;;3.38;1.05;;;12.30;99.90;;;;;;5000693;28;20045;-72
2022/10/09 11:25:55;;;;;;;3.05;0.85;;;12.30;99.90;;;;;;5012711;28;20552;-72
2022/10/09 11:28:26;;;;;;;1.70;0.80;;;12.40;99.90;;;;;;5025802;28;20041;-72
2022/10/09 11:31:09;;;;;;;3.33;1.17;;;12.40;99.90;;;;;;5010318;28;20180;-72
2022/10/09 11:33:48;;;;;;;2.97;1.25;;;12.50;99.90;;;;;;5007630;28;20503;-72
2022/10/09 11:36:17;;;;;;;2.47;1.00;;;12.50;99.90;;;;;;5008591;28;20042;-72
2022/10/09 11:38:49;;;;;;;6.88;1.30;;;12.50;99.90;;;;;;5008449;28;20025;-72
2022/10/09 11:41:15;;;;;;;2.53;1.17;;;12.50;99.90;;;;;;5007903;28;20038;-72
2022/10/09 11:44:15;;;;;;;1.98;0.82;;;12.50;99.90;;;;;;5007955;28;20038;-72
2022/10/09 11:47:05;;;;;;;1.55;0.90;;;12.60;99.90;;;;;;5007625;28;20052;-72
2022/10/09 11:50:13;;;;;;;2.63;1.02;;;12.60;99.90;;;;;;5012652;28;20050;-72
2022/10/09 11:53:01;;;;;;;4.80;1.00;;;12.60;99.90;;;;;;5014527;28;20069;-72
2022/10/09 11:55:29;;;;;;;2.65;1.08;;;12.60;99.90;;;;;;5026799;28;20045;-72
2022/10/09 11:58:05;;;;;;;2.03;0.65;;;12.70;99.90;;;;;;5026603;28;20137;-72
2022/10/09 12:00:34;;;;;;;4.22;0.95;;;12.70;99.90;;;;;;5027211;28;20116;-72
2022/10/09 12:03:03;;;;;;;3.03;0.80;;;12.80;99.90;;;;;;5027831;28;20124;-72
2022/10/09 12:05:45;;;;;;;4.53;0.70;;;12.80;99.90;;;;;;5027744;28;20935;-72
2022/10/09 12:08:16;;;;;;;2.88;0.90;;;12.80;99.90;;;;;;5026527;28;20331;-73
2022/10/09 12:10:51;;;;;;;1.90;0.80;;;12.80;99.90;;;;;;5026072;28;20411;-72
2022/10/09 12:13:41;;;;;;;3.33;1.30;;;12.90;99.90;;;;;;5026380;28;20064;-72
2022/10/09 12:16:27;;;;;;;3.45;1.30;;;12.90;99.90;;;;;;5026118;28;20103;-72
2022/10/09 12:18:53;;;;;;;2.08;0.77;;;12.90;99.90;;;;;;5027351;28;20041;-72
2022/10/09 12:21:27;;;;;;;1.70;0.68;;;12.90;99.90;;;;;;5027271;28;20033;-72
2022/10/09 12:23:53;;;;;;;2.30;0.98;;;12.90;99.90;;;;;;5007992;28;20045;-72
2022/10/09 12:26:22;;;;;;;2.40;0.82;;;13.00;99.90;;;;;;5025348;28;20056;-72
2022/10/09 12:28:52;;;;;;;2.45;0.90;;;13.00;99.90;;;;;;5010563;28;20045;-72
2022/10/09 12:31:40;;;;;;;1.60;0.70;;;13.00;99.90;;;;;;5027786;28;20045;-72
2022/10/09 12:34:24;;;;;;;2.83;0.65;;;13.00;99.90;;;;;;5027227;28;20037;-72
2022/10/09 12:36:49;;;;;;;1.90;0.80;;;13.00;99.90;;;;;;5016009;28;20163;-72
2022/10/09 12:39:21;;;;;;;2.25;0.90;;;13.00;99.90;;;;;;5007745;28;20066;-72
2022/10/09 12:41:50;;;;;;;2.85;0.95;;;13.10;99.90;;;;;;5006792;28;20120;-73
2022/10/09 12:44:25;;;;;;;4.35;1.13;;;13.10;99.90;;;;;;5020833;28;20045;-72
2022/10/09 12:46:51;;;;;;;1.63;0.68;;;13.10;99.90;;;;;;5026877;28;20132;-72
2022/10/09 12:49:20;;;;;;;2.80;1.05;;;13.10;99.90;;;;;;5027519;28;20496;-72
2022/10/09 12:51:54;;;;;;;2.05;0.85;;;13.10;99.90;;;;;;5026250;28;20041;-72
2022/10/09 12:54:21;;;;;;;1.38;0.73;;;13.10;99.90;;;;;;5024712;28;20033;-72
2022/10/09 12:56:47;;;;;;;5.53;1.40;;;13.10;99.90;;;;;;5008341;28;20041;-72
2022/10/09 12:59:13;;;;;;;8.20;1.33;;;13.10;99.90;;;;;;5020144;28;20442;-76
2022/10/09 13:01:40;;;;;;;1.85;1.02;;;13.10;99.90;;;;;;5005043;28;20044;-72
2022/10/09 13:04:07;;;;;;;1.80;0.95;;;13.20;99.90;;;;;;5022095;28;20554;-70
2022/10/09 13:06:43;;;;;;;3.80;0.93;;;13.20;99.90;;;;;;5024687;28;20045;-72
2022/10/09 13:09:23;;;;;;;1.60;0.73;;;13.20;99.90;;;;;;5025328;28;20077;-72
2022/10/09 13:11:59;;;;;;;1.35;0.88;;;13.20;99.90;;;;;;5020129;28;20041;-72